Airport View

Enter AWOS ICAO identifier for current METAR.

ex. KFNL

KAWG 251615Z AUTO 03011KT 10SM SCT026 SCT042 BKN080 03/M01 A3021 RMK AO2

25 Oct 2020 16:15

Frequency: 127.825

Phone: 319-653-4149

Other Area AWOS: KFFL - KMPZ - KIOW - KMUT

TAF KOTM 251123Z 2512/2612 04009KT P6SM BKN040 FM251900 03010KT P6SM OVC030 FM260200 01010KT P6SM VCSH OVC010 FM260700 36011KT 4SM -SN BR OVC008